Brookings, SD

1:43 PM CDT on July 28, 2014 (GMT -0500)
Neighborhood (KSDBROOK4) Elev 1627 ft | 44.29 °N, 96.78 °W | Change Station

Current weather conditions updated 2 minutes ago

Partly Cloudy
Partly Cloudy
73.0 °F
Feels Like 77 °F
N
3.1
Wind Variable Wind from NNW
Gusts 3.1 mph

Today is forecast to be Warmer than yesterday.

Today
High -- | Low -- °F
--% Chance of Precip.
Yesterday
High -- | Low -- °F
Precip. -- in
6:10 AM 8:56 PM
Waxing Crescent, 3% visible
Pressure 30.27 in
Visibility 10.0 miles
Clouds Few 4500 ft
Few 5500 ft
Heat Index 77 °F
Dew Point 56 °F
Humidity 56%
Rainfall 0.00 in
Snow Depth Not available.
UV 5.0 out of 12
Pollen 6.00 out of 12
Air Quality Not available.
Flu Activity Not available.
METAR KMDS 281830Z AUTO 01008KT 10SM FEW045 FEW055 20/11 A3027 RMK AO2

More Conditions Fewer Conditions

Pressure 30.27 in
Visibility 10.0 miles
Clouds Few 4500 ft
Few 5500 ft
Heat Index 77 °F
Dew Point 56 °F
Humidity 56%
Rainfall 0.00 in
Snow Depth Not available.
UV 5.0 out of 12
Pollen 6.00 out of 12
Air Quality Not available.
Flu Activity Not available.
METAR KMDS 281830Z AUTO 01008KT 10SM FEW045 FEW055 20/11 A3027 RMK AO2

More Conditions Fewer Conditions

10-Day Weather Forecast

Almanac

Astronomy

Jul. 28, 2014 Rise Set
Actual Time 6:10 AM CDT 8:56 PM CDT
Civil Twilight 5:36 AM CDT 9:29 PM CDT
Nautical Twilight 4:53 AM CDT 10:12 PM CDT
Astronomical Twilight 4:04 AM CDT 11:01 PM CDT
Moon 7:58 AM CDT 9:31 PM CDT
Length of Visible Light 15h 53m
Length of Day
14h 46m
Tomorrow will be 2m 13s shorter.
Waxing Crescent, 3% of the Moon is Illuminated
Today
Waxing Crescent
Aug 3
First Quarter
Aug 10
Full
Aug 17
Last Quarter
Aug 25
New

Today's Extremes

State Highs State Lows

Community

WunderPhotos

Upload Photos

1,738,433 photos uploaded!

Nearby

Snow Depth

Station Depth Elevation
Blind Park 0 in 6890 ft

Earthquake Activity

City Distance Mag. Time & Date
No recent earthquake activity has been reported nearby.
Minimum magnitude displayed is 2.5.

Coastal Water Temperatures

Place Temperature
No Stations Reporting

Nearby Weather Stations

Station Location Temp. Heat Index Dew Point Humidity Wind Precip. Elev Updated Type
Neighborhood, Brookings, SD 73.0 °F 77 °F 56 °F 56% NNW  at  3.1 mph 0.00 in / hr 1627 ft 1:41 PM CDT Rapid Fire
Indian Hills, Brookings, SD 71.9 °F 76 °F 58 °F 61% NNW  at  0.0 mph 0.00 in / hr 1650 ft 1:40 PM CDT Normal
Valley View, Brookings, SD, Brookings, SD 70.6 °F 76 °F 56 °F 61% North  at  2.3 mph 0.00 in / hr 1601 ft 1:43 PM CDT Rapid Fire
Volga, SD 72.5 °F 77 °F 56 °F 57% West  at  3.0 mph 0.00 in / hr 1655 ft 1:42 PM CDT Normal
HADS BIG SIOUX RIVER NEAR BROOKINGS 1 SD, Brookings, SD 72 °F - - - North  at  - 0.00 in / hr 1549 ft 12:45 PM CDT MADIS
Elkton, SD, Elkton, SD 69.3 °F - 55 °F 61% ENE  at  6.0 mph 0.00 in / hr 1702 ft 1:43 PM CDT Rapid Fire
Brown Farm LTD., Arlington, SD 68.7 °F - 56 °F 64% NNE  at  8.0 mph 0.00 in / hr 1808 ft 1:43 PM CDT Rapid Fire

Show More Stations Show Fewer Stations